Aviation Digital Data Service (ADDS)

Output produced by METARs form (1906 UTC 18 June 2019)
found at http://www.aviationweather.gov/metar/data/
 
HUEN 181400Z 15004KT 9999 FEW022 FEW024CB 24/20 Q1019
TAF HUEN 181700Z 1818/1924 18010KT 9999 FEW022 FEW024CB 
     BECMG 1821/1901 34006KT FEW019 FEW021CB 
     TEMPO 1903/1908 VRB13KT 8000 -TSRA SCT018 FEW020CB BKN100 
     BECMG 1920/1924 02005KT